Time;durP1;ratioP1;P1;durP2;ratioP2;P2;SDS_P1;SDS_P2;PMS_P1;PMS_P2;Temp;Humidity;BMP_temperature;BMP_pressure;BME280_temperature;BME280_humidity;BME280_pressure;Samples;Min_cycle;Max_cycle;Signal;HPM_P1;HPM_P2
2024/02/16 00:02:04;;;;;;;2.87;2.67;;;13.10;99.90;;;;;;5000961;28;21070;-82
2024/02/16 00:04:33;;;;;;;2.83;2.63;;;13.10;99.90;;;;;;5004282;28;20444;-82
2024/02/16 00:07:01;;;;;;;4.17;3.87;;;13.10;99.90;;;;;;5002615;28;20961;-82
2024/02/16 00:09:30;;;;;;;3.43;3.20;;;13.10;99.90;;;;;;5001842;28;20473;-80
2024/02/16 00:11:58;;;;;;;3.40;2.83;;;13.10;99.90;;;;;;5004818;28;20446;-82
2024/02/16 00:14:26;;;;;;;3.47;3.17;;;13.00;99.90;;;;;;5003586;28;20999;-80
2024/02/16 00:16:55;;;;;;;3.53;3.20;;;13.00;99.90;;;;;;5002065;28;20450;-81
2024/02/16 00:19:25;;;;;;;4.57;3.33;;;13.00;99.90;;;;;;5002556;28;20546;-81
2024/02/16 00:21:53;;;;;;;3.03;2.83;;;13.10;99.90;;;;;;5001983;28;20447;-80
2024/02/16 00:24:21;;;;;;;3.30;3.00;;;13.10;99.90;;;;;;5003696;28;20454;-80
2024/02/16 00:26:49;;;;;;;3.20;3.00;;;13.00;99.90;;;;;;5002591;28;20441;-81
2024/02/16 00:29:19;;;;;;;2.90;2.70;;;13.00;99.90;;;;;;5002272;28;20481;-82
2024/02/16 00:31:47;;;;;;;3.70;3.40;;;13.00;99.90;;;;;;5000439;28;20450;-81
2024/02/16 00:34:15;;;;;;;3.07;2.87;;;13.00;99.90;;;;;;5003535;28;20477;-80
2024/02/16 00:36:45;;;;;;;3.10;2.80;;;12.90;99.90;;;;;;4997970;28;20458;-81
2024/02/16 00:39:13;;;;;;;3.87;3.07;;;12.90;99.90;;;;;;4999422;28;20477;-81
2024/02/16 00:41:41;;;;;;;2.80;2.60;;;12.90;99.90;;;;;;4999148;28;20462;-80
2024/02/16 00:44:09;;;;;;;2.60;2.40;;;12.90;99.90;;;;;;5002953;28;20450;-82
2024/02/16 00:46:37;;;;;;;3.40;3.13;;;13.00;99.90;;;;;;5003441;28;20577;-80
2024/02/16 00:49:05;;;;;;;2.73;2.53;;;13.00;99.90;;;;;;4999788;28;20490;-81
2024/02/16 00:51:34;;;;;;;3.30;3.00;;;12.90;99.90;;;;;;4999393;28;20465;-80
2024/02/16 00:54:04;;;;;;;3.90;2.50;;;12.80;99.90;;;;;;5002058;28;20466;-79
2024/02/16 00:56:33;;;;;;;2.83;2.63;;;12.90;99.90;;;;;;5001463;28;20446;-80
2024/02/16 00:59:01;;;;;;;3.20;3.00;;;13.00;99.90;;;;;;5000688;28;20557;-80
2024/02/16 01:01:29;;;;;;;3.53;3.10;;;12.90;99.90;;;;;;5003877;28;20472;-80
2024/02/16 01:03:57;;;;;;;2.90;2.70;;;12.90;99.90;;;;;;5004808;28;20450;-81
2024/02/16 01:06:26;;;;;;;3.40;3.10;;;12.90;99.90;;;;;;5004619;28;20456;-80
2024/02/16 01:08:54;;;;;;;2.87;2.63;;;12.90;99.90;;;;;;5001495;28;20513;-82
2024/02/16 01:11:23;;;;;;;2.80;2.23;;;13.00;99.90;;;;;;5000619;28;21042;-80
2024/02/16 01:13:53;;;;;;;2.40;2.30;;;13.20;99.90;;;;;;4993806;28;20482;-80
2024/02/16 01:16:21;;;;;;;2.40;2.20;;;13.20;99.90;;;;;;4996995;28;20451;-80
2024/02/16 01:18:49;;;;;;;2.20;2.10;;;13.20;99.90;;;;;;4997923;28;20679;-81
2024/02/16 01:21:17;;;;;;;2.53;2.33;;;13.20;99.90;;;;;;5000288;28;21400;-81
2024/02/16 01:23:46;;;;;;;2.40;2.20;;;13.30;99.90;;;;;;4995994;28;20470;-80
2024/02/16 01:26:15;;;;;;;2.53;2.33;;;13.30;99.90;;;;;;4996280;28;20465;-79
2024/02/16 01:28:44;;;;;;;3.03;2.20;;;13.30;99.90;;;;;;4993173;28;20505;-79
2024/02/16 01:31:13;;;;;;;2.60;2.50;;;13.30;99.90;;;;;;4998019;28;20465;-79
2024/02/16 01:33:41;;;;;;;2.30;2.20;;;13.30;99.90;;;;;;4996576;28;20469;-79
2024/02/16 01:36:09;;;;;;;2.50;2.40;;;13.20;99.90;;;;;;5000798;28;20461;-84
2024/02/16 01:38:37;;;;;;;2.80;2.60;;;13.30;99.90;;;;;;4996670;28;20474;-79
2024/02/16 01:41:07;;;;;;;2.60;2.40;;;13.30;99.90;;;;;;5000843;28;20447;-81
2024/02/16 01:43:35;;;;;;;2.43;2.20;;;13.20;99.90;;;;;;5008608;28;20733;-82
2024/02/16 01:46:05;;;;;;;2.30;2.20;;;13.20;99.90;;;;;;5006327;28;20465;-83
2024/02/16 01:48:33;;;;;;;2.80;2.60;;;13.10;99.90;;;;;;5005267;28;20461;-80
2024/02/16 01:51:02;;;;;;;3.17;2.87;;;13.00;99.90;;;;;;5009061;28;20564;-79
2024/02/16 01:53:31;;;;;;;3.97;3.37;;;13.00;99.90;;;;;;5009768;28;20458;-83
2024/02/16 01:56:00;;;;;;;3.40;3.20;;;12.90;99.90;;;;;;5008398;28;20512;-81
2024/02/16 01:58:28;;;;;;;3.57;2.93;;;12.90;1.00;;;;;;5007017;28;20473;-83
2024/02/16 02:00:56;;;;;;;2.93;2.73;;;12.80;1.00;;;;;;5009057;28;20453;-83
2024/02/16 02:03:26;;;;;;;2.97;2.70;;;12.70;1.00;;;;;;5008991;28;20445;-83
2024/02/16 02:05:56;;;;;;;3.00;2.80;;;12.60;1.00;;;;;;5012655;28;20990;-82
2024/02/16 02:08:26;;;;;;;3.60;2.17;;;12.60;1.00;;;;;;5009995;28;20477;-82
2024/02/16 02:10:54;;;;;;;2.80;2.70;;;12.60;1.00;;;;;;5011684;28;20442;-82
2024/02/16 02:13:22;;;;;;;2.90;2.60;;;12.60;1.00;;;;;;5012086;28;20451;-83
2024/02/16 02:15:51;;;;;;;3.27;3.07;;;12.60;1.00;;;;;;5011813;28;20554;-83
2024/02/16 02:18:19;;;;;;;2.70;2.60;;;12.60;1.00;;;;;;5010397;28;20553;-83
2024/02/16 02:20:49;;;;;;;2.70;2.60;;;12.60;44.90;;;;;;5009437;28;20500;-83
2024/02/16 02:23:19;;;;;;;3.23;3.03;;;12.70;24.20;;;;;;5008310;28;20455;-82
2024/02/16 02:25:48;;;;;;;3.30;3.10;;;12.60;1.00;;;;;;5006460;28;20516;-82
2024/02/16 02:28:17;;;;;;;3.03;2.83;;;12.50;55.20;;;;;;5008963;28;20609;-83
2024/02/16 02:30:47;;;;;;;3.10;2.90;;;12.60;1.00;;;;;;5010359;28;20454;-83
2024/02/16 02:33:15;;;;;;;3.43;3.23;;;12.50;1.00;;;;;;5008090;28;20450;-83
2024/02/16 02:35:44;;;;;;;3.30;3.10;;;12.50;12.20;;;;;;5009394;28;20479;-82
2024/02/16 02:38:12;;;;;;;3.40;3.20;;;12.60;99.90;;;;;;5009976;28;20465;-83
2024/02/16 02:40:41;;;;;;;3.63;3.43;;;12.50;99.90;;;;;;5013744;28;20442;-81
2024/02/16 02:43:09;;;;;;;3.60;3.40;;;12.50;29.50;;;;;;5009470;28;20459;-81
2024/02/16 02:45:37;;;;;;;2.97;2.80;;;12.40;1.00;;;;;;5010553;28;20522;-81
2024/02/16 02:48:07;;;;;;;3.20;3.00;;;12.40;1.00;;;;;;5008312;28;20762;-81
2024/02/16 02:50:35;;;;;;;3.63;3.37;;;12.40;99.90;;;;;;5011074;28;20466;-81
2024/02/16 02:53:03;;;;;;;3.40;3.10;;;12.50;99.90;;;;;;5009457;28;20443;-82
2024/02/16 02:55:32;;;;;;;2.87;2.73;;;12.60;99.90;;;;;;5010031;28;20524;-81
2024/02/16 02:58:01;;;;;;;3.30;3.20;;;12.70;99.90;;;;;;5006376;28;20814;-81
2024/02/16 03:00:29;;;;;;;4.00;3.80;;;12.70;99.90;;;;;;5004598;28;20465;-82
2024/02/16 03:02:58;;;;;;;3.60;3.40;;;12.70;99.90;;;;;;5010305;28;20453;-81
2024/02/16 03:05:26;;;;;;;2.87;2.77;;;12.60;99.90;;;;;;5012271;28;20477;-81
2024/02/16 03:07:55;;;;;;;4.70;3.00;;;12.60;99.90;;;;;;5008310;28;20454;-82
2024/02/16 03:10:23;;;;;;;3.50;3.30;;;12.60;99.90;;;;;;5002089;28;20481;-81
2024/02/16 03:12:51;;;;;;;3.13;2.93;;;12.50;99.90;;;;;;5004735;28;20855;-80
2024/02/16 03:15:21;;;;;;;3.43;3.23;;;12.40;99.90;;;;;;5002979;28;20461;-79
2024/02/16 03:17:49;;;;;;;3.73;3.53;;;12.60;99.90;;;;;;5000324;28;20461;-80
2024/02/16 03:20:21;;;;;;;3.30;3.10;;;12.60;99.90;;;;;;5002033;28;20625;-80
2024/02/16 03:22:50;;;;;;;3.80;3.50;;;12.60;99.90;;;;;;5001658;28;20458;-81
2024/02/16 03:25:18;;;;;;;2.83;2.73;;;12.50;99.90;;;;;;5004063;28;21021;-81
2024/02/16 03:27:46;;;;;;;3.27;3.07;;;12.50;99.90;;;;;;5002132;28;20473;-81
2024/02/16 03:30:15;;;;;;;3.50;3.30;;;12.60;99.90;;;;;;5005971;28;20497;-83
2024/02/16 03:32:48;;;;;;;3.00;2.83;;;12.70;99.90;;;;;;5003040;28;20469;-80
2024/02/16 03:35:17;;;;;;;2.87;2.70;;;12.90;99.90;;;;;;5000718;28;20484;-81
2024/02/16 03:37:45;;;;;;;2.50;2.37;;;12.90;99.90;;;;;;4998867;28;20533;-81
2024/02/16 03:40:13;;;;;;;3.23;3.03;;;12.90;99.90;;;;;;5003386;28;20845;-82
2024/02/16 03:42:41;;;;;;;2.57;2.37;;;12.90;99.90;;;;;;5002530;28;20449;-82
2024/02/16 03:45:11;;;;;;;2.87;2.77;;;13.00;99.90;;;;;;5003717;28;20461;-81
2024/02/16 03:47:41;;;;;;;2.80;2.60;;;12.90;99.90;;;;;;5003742;28;20459;-83
2024/02/16 03:50:11;;;;;;;4.07;2.90;;;12.90;99.90;;;;;;5005185;28;20541;-81
2024/02/16 03:52:39;;;;;;;2.90;2.80;;;12.90;99.90;;;;;;5001293;28;20439;-81
2024/02/16 03:55:08;;;;;;;3.77;3.57;;;12.80;99.90;;;;;;5004453;28;20469;-81
2024/02/16 03:57:38;;;;;;;3.10;3.00;;;12.80;99.90;;;;;;5003194;28;20450;-81
2024/02/16 04:00:08;;;;;;;4.13;3.13;;;12.80;99.90;;;;;;4999674;28;21025;-81
2024/02/16 04:02:37;;;;;;;3.50;3.20;;;12.80;99.90;;;;;;5001914;28;20458;-81
2024/02/16 04:05:07;;;;;;;3.17;2.97;;;12.80;99.90;;;;;;5005377;28;20455;-83
2024/02/16 04:07:37;;;;;;;3.93;3.10;;;12.80;99.90;;;;;;5001587;28;20573;-81
2024/02/16 04:10:06;;;;;;;2.80;2.70;;;12.80;99.90;;;;;;5003733;28;20543;-82
2024/02/16 04:12:36;;;;;;;3.73;3.33;;;12.80;99.90;;;;;;4999938;28;20443;-82
2024/02/16 04:15:05;;;;;;;3.90;3.53;;;12.80;99.90;;;;;;5005502;28;20502;-82
2024/02/16 04:17:33;;;;;;;3.77;3.43;;;12.80;99.90;;;;;;4999618;28;20486;-80
2024/02/16 04:20:01;;;;;;;3.50;3.20;;;12.80;99.90;;;;;;5002860;28;20572;-81
2024/02/16 04:22:30;;;;;;;3.60;3.40;;;12.80;99.90;;;;;;5002735;28;20477;-81
2024/02/16 04:24:59;;;;;;;4.00;3.77;;;12.80;99.90;;;;;;5003595;28;20443;-81
2024/02/16 04:27:27;;;;;;;3.47;3.27;;;12.80;99.90;;;;;;4999237;28;20442;-81
2024/02/16 04:29:56;;;;;;;3.67;3.47;;;12.90;99.90;;;;;;4998933;28;20560;-81
2024/02/16 04:32:25;;;;;;;3.53;3.33;;;12.90;99.90;;;;;;4998173;28;20462;-80
2024/02/16 04:34:55;;;;;;;3.00;2.90;;;12.90;99.90;;;;;;5000830;28;20531;-80
2024/02/16 04:37:25;;;;;;;3.77;3.43;;;12.90;99.90;;;;;;4999575;28;20544;-81
2024/02/16 04:39:53;;;;;;;3.80;3.50;;;12.90;99.90;;;;;;4998040;28;20489;-80
2024/02/16 04:42:23;;;;;;;3.47;3.20;;;12.90;99.90;;;;;;4999262;28;20571;-81
2024/02/16 04:44:51;;;;;;;3.63;3.20;;;12.80;99.90;;;;;;5001441;28;21181;-80
2024/02/16 04:47:19;;;;;;;4.20;3.90;;;12.80;99.90;;;;;;4998263;28;20556;-80
2024/02/16 04:49:47;;;;;;;3.53;3.33;;;12.90;99.90;;;;;;4999256;28;20885;-81
2024/02/16 04:52:15;;;;;;;3.70;3.40;;;12.80;99.90;;;;;;4996441;28;20458;-79
2024/02/16 04:54:43;;;;;;;2.97;2.67;;;12.80;99.90;;;;;;4998638;28;20449;-79
2024/02/16 04:57:11;;;;;;;3.40;3.20;;;12.80;99.90;;;;;;4997995;28;20482;-79
2024/02/16 04:59:41;;;;;;;3.60;3.40;;;12.80;99.90;;;;;;4997050;28;20469;-78
2024/02/16 05:02:09;;;;;;;3.40;3.20;;;12.80;99.90;;;;;;4993013;28;20963;-81
2024/02/16 05:04:37;;;;;;;3.60;3.30;;;12.80;99.90;;;;;;4998962;28;20463;-80
2024/02/16 05:07:05;;;;;;;3.53;3.33;;;12.80;99.90;;;;;;4996604;28;20461;-79
2024/02/16 05:09:34;;;;;;;2.93;2.73;;;12.70;99.90;;;;;;4997515;28;20485;-80
2024/02/16 05:12:03;;;;;;;3.30;3.10;;;12.70;99.90;;;;;;4997459;28;20444;-80
2024/02/16 05:14:31;;;;;;;3.70;3.40;;;12.60;99.90;;;;;;5002406;28;20198;-80
2024/02/16 05:17:01;;;;;;;2.60;2.50;;;12.70;99.90;;;;;;4999124;28;20516;-80
2024/02/16 05:19:29;;;;;;;3.27;3.07;;;12.80;99.90;;;;;;4999608;28;21042;-82
2024/02/16 05:21:57;;;;;;;3.53;3.23;;;12.70;99.90;;;;;;4997692;28;20543;-81
2024/02/16 05:24:25;;;;;;;3.27;3.07;;;12.70;99.90;;;;;;4996390;28;20450;-82
2024/02/16 05:26:54;;;;;;;2.67;2.53;;;12.70;99.90;;;;;;4997759;28;20442;-81
2024/02/16 05:29:22;;;;;;;4.50;3.27;;;12.70;99.90;;;;;;4998095;28;20481;-79
2024/02/16 05:31:52;;;;;;;3.37;3.07;;;12.60;99.90;;;;;;4995639;28;20442;-79
2024/02/16 05:34:21;;;;;;;3.80;3.50;;;12.60;99.90;;;;;;4996913;28;20478;-81
2024/02/16 05:36:51;;;;;;;3.50;3.27;;;12.60;99.90;;;;;;4998265;28;20482;-80
2024/02/16 05:39:26;;;;;;;4.10;3.90;;;12.60;99.90;;;;;;4998511;28;21347;-80
2024/02/16 05:41:55;;;;;;;3.50;3.20;;;12.60;99.90;;;;;;4999620;28;20572;-84
2024/02/16 05:44:23;;;;;;;3.50;3.20;;;12.50;99.90;;;;;;5001039;28;20974;-83
2024/02/16 05:46:51;;;;;;;3.90;3.60;;;12.50;99.90;;;;;;4999657;28;20442;-80
2024/02/16 05:49:21;;;;;;;4.23;3.90;;;12.50;99.90;;;;;;4998608;28;21145;-81
2024/02/16 05:52:17;;;;;;;3.63;3.33;;;12.50;99.90;;;;;;4997952;28;20464;-82
2024/02/16 05:54:45;;;;;;;3.47;3.17;;;12.40;99.90;;;;;;4996487;28;20542;-82
2024/02/16 05:57:14;;;;;;;3.17;2.97;;;12.30;99.90;;;;;;5001509;28;20567;-81
2024/02/16 05:59:43;;;;;;;4.03;3.63;;;12.20;99.90;;;;;;4997401;28;20457;-81
2024/02/16 06:02:11;;;;;;;3.70;3.40;;;12.20;99.90;;;;;;5000433;28;20899;-82
2024/02/16 06:04:41;;;;;;;2.70;2.50;;;12.20;99.90;;;;;;5001446;28;20450;-80
2024/02/16 06:07:13;;;;;;;2.90;2.70;;;12.30;99.90;;;;;;4999579;28;20955;-81
2024/02/16 06:09:41;;;;;;;2.50;2.30;;;12.30;99.90;;;;;;4999817;28;20489;-81
2024/02/16 06:12:12;;;;;;;3.40;2.87;;;12.40;99.90;;;;;;5002000;28;20461;-81
2024/02/16 06:14:41;;;;;;;2.80;2.60;;;12.50;99.90;;;;;;4996504;28;20461;-82
2024/02/16 06:17:09;;;;;;;3.80;2.77;;;12.50;99.90;;;;;;4999447;28;20477;-83
2024/02/16 06:19:37;;;;;;;2.70;2.60;;;12.50;99.90;;;;;;4996618;28;20474;-83
2024/02/16 06:22:08;;;;;;;2.90;2.70;;;12.60;99.90;;;;;;4999676;28;20457;-82
2024/02/16 06:24:36;;;;;;;2.20;2.00;;;12.50;99.90;;;;;;5004734;28;20437;-80
2024/02/16 06:27:05;;;;;;;2.93;2.73;;;12.50;99.90;;;;;;5004446;28;20449;-82
2024/02/16 06:29:33;;;;;;;2.60;2.40;;;12.60;99.90;;;;;;5004165;28;20802;-81
2024/02/16 06:32:02;;;;;;;2.80;2.70;;;12.50;99.90;;;;;;4998338;28;20978;-80
2024/02/16 06:34:31;;;;;;;3.43;3.23;;;12.50;99.90;;;;;;5001434;28;20474;-81
2024/02/16 06:36:59;;;;;;;2.80;2.70;;;12.50;99.90;;;;;;5005252;28;20481;-81
2024/02/16 06:39:30;;;;;;;3.50;3.30;;;12.40;99.90;;;;;;5004688;28;20561;-80
2024/02/16 06:42:00;;;;;;;3.40;2.80;;;12.40;99.90;;;;;;5003602;28;20461;-82
2024/02/16 06:44:28;;;;;;;3.17;2.97;;;12.30;99.90;;;;;;5005155;28;20453;-82
2024/02/16 06:46:56;;;;;;;4.13;2.60;;;12.30;99.90;;;;;;5006338;28;20442;-80
2024/02/16 06:49:24;;;;;;;3.40;3.10;;;12.20;99.90;;;;;;5003174;28;20505;-82
2024/02/16 06:51:53;;;;;;;4.03;3.33;;;12.10;99.90;;;;;;5005893;28;20458;-81
2024/02/16 06:54:21;;;;;;;3.70;3.17;;;12.10;99.90;;;;;;5005965;28;20466;-82
2024/02/16 06:56:51;;;;;;;3.93;3.73;;;12.10;99.90;;;;;;5004887;28;20500;-81
2024/02/16 06:59:19;;;;;;;3.47;3.27;;;12.10;99.90;;;;;;5002798;28;20474;-80
2024/02/16 07:01:47;;;;;;;3.77;3.03;;;12.10;99.90;;;;;;5004462;28;20456;-81
2024/02/16 07:04:15;;;;;;;9.50;4.03;;;12.10;99.90;;;;;;4997863;28;20462;-81
2024/02/16 07:06:44;;;;;;;3.97;3.30;;;12.20;99.90;;;;;;5002762;28;20505;-80
2024/02/16 07:09:14;;;;;;;3.50;3.13;;;12.20;99.90;;;;;;5003819;28;20489;-83
2024/02/16 07:11:46;;;;;;;2.93;2.70;;;12.20;99.90;;;;;;5018717;28;20492;-82
2024/02/16 07:14:19;;;;;;;3.10;2.80;;;12.10;99.90;;;;;;5000068;28;20462;-80
2024/02/16 07:16:47;;;;;;;2.67;2.43;;;12.20;99.90;;;;;;5002780;28;20442;-80
2024/02/16 07:19:15;;;;;;;3.40;2.80;;;12.20;99.90;;;;;;4999669;28;20487;-82
2024/02/16 07:21:45;;;;;;;2.50;2.40;;;12.30;99.90;;;;;;5014439;28;20457;-81
2024/02/16 07:24:15;;;;;;;2.87;2.70;;;12.20;99.90;;;;;;5000700;28;20456;-80
2024/02/16 07:26:43;;;;;;;4.20;3.00;;;12.30;99.90;;;;;;5004233;28;20485;-82
2024/02/16 07:29:13;;;;;;;3.20;3.00;;;12.40;99.90;;;;;;5001820;28;21095;-81
2024/02/16 07:31:42;;;;;;;7.03;3.47;;;12.40;99.90;;;;;;5000564;28;20565;-80
2024/02/16 07:34:11;;;;;;;3.10;2.90;;;12.30;99.90;;;;;;4999033;28;20852;-80
2024/02/16 07:36:40;;;;;;;3.43;3.23;;;12.40;99.90;;;;;;5003646;28;20203;-80
2024/02/16 07:39:11;;;;;;;3.33;3.03;;;12.60;99.90;;;;;;5000931;28;20497;-80
2024/02/16 07:41:40;;;;;;;4.90;3.90;;;12.70;99.90;;;;;;5003792;28;20458;-82
2024/02/16 07:44:08;;;;;;;2.80;2.70;;;12.70;99.90;;;;;;5002493;28;20565;-80
2024/02/16 07:46:45;;;;;;;3.88;3.53;;;12.70;99.90;;;;;;4993800;28;20866;-82
2024/02/16 07:49:14;;;;;;;4.97;4.60;;;12.60;99.90;;;;;;4998488;28;20770;-84
2024/02/16 07:51:42;;;;;;;2.90;2.63;;;12.80;99.90;;;;;;4999728;28;20460;-78
2024/02/16 07:54:10;;;;;;;3.60;3.30;;;12.90;99.90;;;;;;5001004;28;20452;-82
2024/02/16 07:56:38;;;;;;;7.73;4.30;;;13.10;99.90;;;;;;4998154;28;21193;-80
2024/02/16 07:59:06;;;;;;;4.00;3.70;;;13.20;99.90;;;;;;4999127;28;20494;-82
2024/02/16 08:01:34;;;;;;;5.17;4.17;;;13.30;99.90;;;;;;4998407;28;20528;-81
2024/02/16 08:04:04;;;;;;;6.80;6.03;;;13.50;99.90;;;;;;4995717;28;20463;-82
2024/02/16 08:06:34;;;;;;;5.87;4.57;;;13.70;99.90;;;;;;4995891;28;20948;-82
2024/02/16 08:09:02;;;;;;;3.50;3.20;;;13.90;99.90;;;;;;4997808;28;20503;-80
2024/02/16 08:11:32;;;;;;;4.60;4.17;;;14.20;99.90;;;;;;5004141;28;20618;-81
2024/02/16 08:14:00;;;;;;;4.07;3.77;;;14.30;99.90;;;;;;5002265;28;20460;-82
2024/02/16 08:16:29;;;;;;;3.03;2.83;;;14.50;99.90;;;;;;5000133;28;20453;-79
2024/02/16 08:18:57;;;;;;;3.40;3.10;;;14.60;99.90;;;;;;4996428;28;20907;-81
2024/02/16 08:21:27;;;;;;;3.63;3.43;;;14.80;99.90;;;;;;5000322;28;20450;-80
2024/02/16 08:23:55;;;;;;;10.20;5.00;;;15.00;99.90;;;;;;5007972;28;20475;-82
2024/02/16 08:26:23;;;;;;;6.93;4.57;;;15.20;99.90;;;;;;5021259;28;22526;-83
2024/02/16 08:28:51;;;;;;;6.80;4.30;;;15.40;99.90;;;;;;5019546;28;20470;-81
2024/02/16 08:31:20;;;;;;;6.70;4.10;;;15.70;99.90;;;;;;5020902;28;20454;-81
2024/02/16 08:33:48;;;;;;;4.17;3.77;;;15.90;99.90;;;;;;5023049;28;20505;-82
2024/02/16 08:36:16;;;;;;;5.10;3.40;;;16.20;99.90;;;;;;5020366;28;20502;-82
2024/02/16 08:38:46;;;;;;;3.10;2.90;;;16.30;99.90;;;;;;5002204;28;21061;-83
2024/02/16 08:41:14;;;;;;;2.90;2.70;;;16.20;99.90;;;;;;5020196;28;21232;-84
2024/02/16 08:43:42;;;;;;;2.80;2.60;;;16.40;99.90;;;;;;5010514;28;20452;-84
2024/02/16 08:46:10;;;;;;;2.73;2.53;;;16.70;99.90;;;;;;5021988;28;20545;-83
2024/02/16 08:48:38;;;;;;;3.70;2.30;;;16.90;99.90;;;;;;5020102;28;21301;-85
2024/02/16 08:51:07;;;;;;;2.93;2.70;;;17.20;99.90;;;;;;5018443;28;20481;-83
2024/02/16 08:53:35;;;;;;;2.50;2.30;;;17.60;99.90;;;;;;5020264;28;20538;-82
2024/02/16 08:56:09;;;;;;;3.13;2.93;;;18.00;99.90;;;;;;5018296;28;20455;-83
2024/02/16 08:58:38;;;;;;;2.50;2.40;;;18.30;99.90;;;;;;5019427;28;20519;-84
2024/02/16 09:01:06;;;;;;;2.50;2.20;;;18.70;99.90;;;;;;5016632;28;20472;-80
2024/02/16 09:03:38;;;;;;;2.80;2.70;;;18.70;99.90;;;;;;5020517;28;20457;-82
2024/02/16 09:06:07;;;;;;;2.40;2.30;;;18.80;99.90;;;;;;5021044;28;20461;-80
2024/02/16 09:08:35;;;;;;;3.63;3.33;;;19.20;99.90;;;;;;5016235;28;20487;-81
2024/02/16 09:11:06;;;;;;;2.27;2.07;;;19.80;99.90;;;;;;5017081;28;20460;-80
2024/02/16 09:13:35;;;;;;;2.60;2.43;;;20.20;99.90;;;;;;5016877;28;20477;-82
2024/02/16 09:16:08;;;;;;;2.53;2.43;;;20.60;99.90;;;;;;5015657;28;20457;-79
2024/02/16 09:18:37;;;;;;;2.10;2.00;;;20.70;99.90;;;;;;5016169;28;20483;-81
2024/02/16 09:21:05;;;;;;;2.20;2.10;;;20.60;99.90;;;;;;5015974;28;20498;-82
2024/02/16 09:23:35;;;;;;;2.37;1.87;;;21.00;99.90;;;;;;5020048;28;20522;-81
2024/02/16 09:26:05;;;;;;;1.87;1.77;;;21.30;99.90;;;;;;5019795;28;20483;-80
2024/02/16 09:28:33;;;;;;;2.30;2.10;;;21.90;99.90;;;;;;5015085;28;20469;-81
2024/02/16 09:31:02;;;;;;;2.80;2.53;;;22.20;99.90;;;;;;5015139;28;20515;-80
2024/02/16 09:33:30;;;;;;;3.60;2.30;;;22.10;99.90;;;;;;5009942;28;20935;-81
2024/02/16 09:35:58;;;;;;;2.27;2.17;;;21.50;99.90;;;;;;5008909;28;20460;-80
2024/02/16 09:38:26;;;;;;;2.43;2.23;;;20.80;99.90;;;;;;5020830;28;20487;-80
2024/02/16 09:40:55;;;;;;;2.50;2.30;;;20.30;99.90;;;;;;5023060;28;20502;-80
2024/02/16 09:43:29;;;;;;;2.23;2.13;;;20.00;99.90;;;;;;5000691;28;20844;-82
2024/02/16 09:45:59;;;;;;;3.10;2.80;;;19.60;99.90;;;;;;5018997;28;20455;-81
2024/02/16 09:48:28;;;;;;;3.87;3.57;;;19.40;99.90;;;;;;5019662;28;20458;-81
2024/02/16 09:50:58;;;;;;;2.67;2.37;;;19.30;99.90;;;;;;5020190;28;20501;-81
2024/02/16 09:53:29;;;;;;;2.43;2.30;;;19.40;99.90;;;;;;5016346;28;20456;-84
2024/02/16 09:55:58;;;;;;;2.20;2.00;;;19.10;99.90;;;;;;5017755;28;20450;-81
2024/02/16 09:58:28;;;;;;;5.30;2.37;;;19.00;99.90;;;;;;5019987;28;20487;-83
2024/02/16 10:00:57;;;;;;;3.03;2.23;;;19.00;99.90;;;;;;5016105;28;20831;-80
2024/02/16 10:03:27;;;;;;;2.63;2.37;;;19.00;99.90;;;;;;5019321;28;20481;-81
2024/02/16 10:06:06;;;;;;;3.00;2.47;;;18.80;99.90;;;;;;5020485;28;20494;-80
2024/02/16 10:08:35;;;;;;;2.37;2.17;;;18.60;99.90;;;;;;5019287;28;20473;-80
2024/02/16 10:11:05;;;;;;;2.47;2.30;;;18.60;99.90;;;;;;5020816;28;20476;-80
2024/02/16 10:13:34;;;;;;;2.93;2.17;;;18.50;99.90;;;;;;5014593;28;20910;-80
2024/02/16 10:16:08;;;;;;;2.70;2.00;;;18.40;99.90;;;;;;5016444;28;20457;-81
2024/02/16 10:18:37;;;;;;;3.10;2.90;;;18.30;99.90;;;;;;5018853;28;20473;-80
2024/02/16 10:21:07;;;;;;;2.40;2.20;;;18.10;99.90;;;;;;5025846;28;20457;-81
2024/02/16 10:23:35;;;;;;;2.47;2.37;;;18.00;99.90;;;;;;5020922;28;20445;-84
2024/02/16 10:26:11;;;;;;;3.17;2.70;;;18.00;99.90;;;;;;5025054;28;20461;-81
2024/02/16 10:28:43;;;;;;;3.63;2.20;;;17.80;99.90;;;;;;5017112;28;20464;-81
2024/02/16 10:31:11;;;;;;;2.47;2.30;;;17.70;99.90;;;;;;5020983;28;20492;-81
2024/02/16 10:33:43;;;;;;;2.60;2.23;;;17.70;99.90;;;;;;5019830;28;20541;-82
2024/02/16 10:36:12;;;;;;;3.10;2.13;;;17.60;99.90;;;;;;5025715;28;20453;-80
2024/02/16 10:38:42;;;;;;;2.83;2.63;;;17.50;99.90;;;;;;5016240;28;20479;-80
2024/02/16 10:41:10;;;;;;;2.73;2.60;;;17.40;99.90;;;;;;5020166;28;20449;-80
2024/02/16 10:43:40;;;;;;;3.07;2.77;;;17.40;99.90;;;;;;5018557;28;20453;-81
2024/02/16 10:46:09;;;;;;;2.80;2.60;;;17.30;99.90;;;;;;5022850;28;20467;-81
2024/02/16 10:48:41;;;;;;;2.93;2.80;;;17.20;99.90;;;;;;5000320;28;20623;-82
2024/02/16 10:51:12;;;;;;;2.33;2.10;;;17.10;99.90;;;;;;5020413;28;20523;-82
2024/02/16 10:53:42;;;;;;;2.87;2.37;;;17.10;99.90;;;;;;5019436;28;20442;-82
2024/02/16 10:56:10;;;;;;;4.50;2.30;;;17.10;99.90;;;;;;5020873;28;20461;-83
2024/02/16 10:58:41;;;;;;;2.33;2.13;;;17.00;99.90;;;;;;5017363;28;20563;-84
2024/02/16 11:01:11;;;;;;;3.53;3.00;;;17.00;99.90;;;;;;5020565;28;20473;-81
2024/02/16 11:03:40;;;;;;;2.20;1.93;;;17.00;99.90;;;;;;5017778;28;20464;-81
2024/02/16 11:06:18;;;;;;;3.70;1.93;;;17.00;99.90;;;;;;5018407;28;21353;-81
2024/02/16 11:08:50;;;;;;;2.67;2.37;;;17.00;99.90;;;;;;5018633;28;20479;-81
2024/02/16 11:11:24;;;;;;;2.47;2.27;;;17.00;99.90;;;;;;5019581;28;20464;-83
2024/02/16 11:13:56;;;;;;;4.40;2.33;;;17.00;99.90;;;;;;5019892;28;20896;-82
2024/02/16 11:16:24;;;;;;;2.40;2.20;;;17.00;99.90;;;;;;5019741;28;20459;-83
2024/02/16 11:18:54;;;;;;;4.30;2.50;;;17.00;99.90;;;;;;5019348;28;20553;-84
2024/02/16 11:21:22;;;;;;;3.50;3.00;;;17.10;99.90;;;;;;5014098;28;20489;-80
2024/02/16 11:23:51;;;;;;;5.00;2.00;;;17.20;99.90;;;;;;5022989;28;20551;-81
2024/02/16 11:26:20;;;;;;;2.40;1.90;;;17.30;99.90;;;;;;5007410;28;20453;-80
2024/02/16 11:28:48;;;;;;;2.13;2.03;;;17.50;99.90;;;;;;5018291;28;20506;-82
2024/02/16 11:31:18;;;;;;;2.33;2.13;;;17.90;99.90;;;;;;5022143;28;20561;-82
2024/02/16 11:33:46;;;;;;;2.40;2.20;;;18.30;99.90;;;;;;5022955;28;20446;-82
2024/02/16 11:36:14;;;;;;;2.50;2.30;;;18.70;99.90;;;;;;5021298;28;20552;-84
2024/02/16 11:38:43;;;;;;;2.70;2.50;;;18.80;99.90;;;;;;5020060;28;20472;-81
2024/02/16 11:41:11;;;;;;;3.50;2.00;;;18.80;99.90;;;;;;5025714;28;20539;-81
2024/02/16 11:43:39;;;;;;;6.73;3.57;;;18.80;99.90;;;;;;5021190;28;20457;-83
2024/02/16 11:46:14;;;;;;;2.80;2.60;;;18.70;99.90;;;;;;5022865;28;20464;-81
2024/02/16 11:48:44;;;;;;;2.10;2.00;;;18.80;99.90;;;;;;5021491;28;20477;-82
2024/02/16 11:51:16;;;;;;;3.30;2.40;;;18.90;99.90;;;;;;5022894;28;20453;-82
2024/02/16 11:53:45;;;;;;;7.80;3.40;;;18.90;99.90;;;;;;5019925;28;20455;-82
2024/02/16 11:56:24;;;;;;;2.67;2.33;;;18.80;99.90;;;;;;5021676;28;20449;-82
2024/02/16 11:58:52;;;;;;;3.23;2.00;;;18.70;99.90;;;;;;5019601;28;20512;-83
2024/02/16 12:01:21;;;;;;;2.53;2.00;;;18.60;99.90;;;;;;5019298;28;20501;-81
2024/02/16 12:03:51;;;;;;;2.27;2.17;;;18.50;99.90;;;;;;5021081;28;20461;-82
2024/02/16 12:06:22;;;;;;;3.80;2.20;;;18.50;99.90;;;;;;5021644;28;20454;-81
2024/02/16 12:08:53;;;;;;;4.10;3.50;;;18.40;99.90;;;;;;5005071;28;20466;-82
2024/02/16 12:11:21;;;;;;;2.47;2.27;;;18.50;99.90;;;;;;5023462;28;20473;-82
2024/02/16 12:13:50;;;;;;;3.97;2.80;;;18.50;99.90;;;;;;5019866;28;20461;-84
2024/02/16 12:16:20;;;;;;;3.07;2.87;;;18.60;99.90;;;;;;5003252;28;20546;-81
2024/02/16 12:18:50;;;;;;;7.50;2.80;;;18.50;99.90;;;;;;5019463;28;20488;-82
2024/02/16 12:21:20;;;;;;;2.97;2.47;;;18.50;99.90;;;;;;5020372;28;20481;-81
2024/02/16 12:23:49;;;;;;;2.27;2.10;;;18.50;99.90;;;;;;5019962;28;20468;-84
2024/02/16 12:26:17;;;;;;;3.10;2.90;;;18.40;99.90;;;;;;5025593;28;20454;-82
2024/02/16 12:28:45;;;;;;;6.03;3.93;;;18.30;99.90;;;;;;5020057;28;20465;-82
2024/02/16 12:31:19;;;;;;;10.43;3.23;;;18.30;99.90;;;;;;5020512;28;20551;-79
2024/02/16 12:33:47;;;;;;;6.00;3.30;;;18.20;99.90;;;;;;5017032;28;21233;-80
2024/02/16 12:36:18;;;;;;;6.00;3.23;;;18.20;99.90;;;;;;5022856;28;21358;-79
2024/02/16 12:38:46;;;;;;;3.27;2.67;;;18.10;99.90;;;;;;5019300;28;20484;-81
2024/02/16 12:41:14;;;;;;;4.40;2.10;;;18.10;99.90;;;;;;5019379;28;20554;-82
2024/02/16 12:43:43;;;;;;;6.07;2.87;;;18.10;99.90;;;;;;5022540;28;21283;-83
2024/02/16 12:46:11;;;;;;;2.57;2.10;;;18.00;99.90;;;;;;5022889;28;20461;-81
2024/02/16 12:48:39;;;;;;;3.13;2.20;;;17.90;99.90;;;;;;5018182;28;20484;-82
2024/02/16 12:51:07;;;;;;;5.47;2.30;;;17.90;99.90;;;;;;5019378;28;20461;-81
2024/02/16 12:53:40;;;;;;;3.07;2.03;;;17.90;99.90;;;;;;5023433;28;20511;-81
2024/02/16 12:56:09;;;;;;;2.27;2.07;;;17.80;99.90;;;;;;5022027;28;22008;-83
2024/02/16 12:58:37;;;;;;;2.80;2.30;;;17.80;99.90;;;;;;5024950;28;20504;-83